Time;durP1;ratioP1;P1;durP2;ratioP2;P2;SDS_P1;SDS_P2;PMS_P1;PMS_P2;Temp;Humidity;BMP_temperature;BMP_pressure;BME280_temperature;BME280_humidity;BME280_pressure;Samples;Min_cycle;Max_cycle;Signal;HPM_P1;HPM_P2
2022/08/30 00:01:04;;;;;;;3.60;3.23;;;23.10;44.10;;;;;;5052862;28;20451;-90
2022/08/30 00:03:35;;;;;;;5.53;2.90;;;23.10;44.40;;;;;;5034025;28;20447;-88
2022/08/30 00:06:04;;;;;;;7.40;3.40;;;23.10;44.30;;;;;;5036911;28;20862;-88
2022/08/30 00:08:32;;;;;;;4.40;2.80;;;23.00;44.30;;;;;;5060815;28;20467;-90
2022/08/30 00:10:59;;;;;;;4.30;2.80;;;22.90;44.20;;;;;;5041401;28;20459;-88
2022/08/30 00:13:26;;;;;;;2.93;2.50;;;22.90;44.40;;;;;;5030253;28;20453;-90
2022/08/30 00:15:53;;;;;;;3.87;2.63;;;22.90;44.70;;;;;;5058979;28;20471;-88
2022/08/30 00:18:20;;;;;;;4.93;2.37;;;22.80;44.60;;;;;;5077745;28;20455;-89
2022/08/30 00:20:50;;;;;;;4.33;2.60;;;22.80;44.50;;;;;;5061157;28;20448;-88
2022/08/30 00:23:19;;;;;;;3.10;2.80;;;22.80;44.50;;;;;;5081409;28;20539;-88
2022/08/30 00:25:46;;;;;;;4.10;2.37;;;22.70;44.70;;;;;;5037537;28;20472;-87
2022/08/30 00:28:14;;;;;;;4.27;2.40;;;22.70;45.00;;;;;;5045489;28;20469;-87
2022/08/30 00:30:42;;;;;;;4.90;2.40;;;22.70;44.50;;;;;;5039295;28;20510;-92
2022/08/30 00:33:10;;;;;;;2.90;2.47;;;22.60;44.70;;;;;;5041749;28;20472;-88
2022/08/30 00:35:38;;;;;;;4.70;3.17;;;22.60;44.90;;;;;;5050646;28;20518;-88
2022/08/30 00:38:07;;;;;;;4.63;2.63;;;22.60;45.00;;;;;;5035812;28;20448;-92
2022/08/30 00:40:35;;;;;;;2.83;2.23;;;22.50;45.00;;;;;;5078410;28;20495;-88
2022/08/30 00:43:05;;;;;;;3.77;2.63;;;22.50;45.00;;;;;;5051730;28;20522;-90
2022/08/30 00:45:35;;;;;;;2.90;2.60;;;22.50;45.20;;;;;;5026697;28;20528;-88
2022/08/30 00:48:03;;;;;;;6.80;2.63;;;22.50;45.50;;;;;;5044094;28;20518;-89
2022/08/30 00:50:35;;;;;;;5.50;3.60;;;22.40;45.80;;;;;;5046048;28;20439;-88
2022/08/30 00:53:07;;;;;;;4.23;3.00;;;22.40;46.50;;;;;;5080213;28;20444;-90
2022/08/30 00:55:35;;;;;;;4.63;3.10;;;22.30;46.70;;;;;;5062267;28;20475;-87
2022/08/30 00:58:05;;;;;;;3.63;2.63;;;22.30;47.10;;;;;;5047709;28;21010;-89
2022/08/30 01:00:32;;;;;;;4.63;2.80;;;22.30;47.40;;;;;;5050977;28;20444;-89
2022/08/30 01:02:59;;;;;;;3.07;2.77;;;22.30;47.10;;;;;;5068578;28;21001;-88
2022/08/30 01:05:27;;;;;;;4.57;2.80;;;22.20;47.00;;;;;;5037848;28;20491;-90
2022/08/30 01:07:54;;;;;;;2.53;2.33;;;22.20;46.60;;;;;;5077981;28;20516;-88
2022/08/30 01:10:22;;;;;;;4.07;3.40;;;22.10;46.40;;;;;;5034570;28;20444;-90
2022/08/30 01:12:49;;;;;;;4.30;2.83;;;22.10;46.20;;;;;;5044171;28;20451;-88
2022/08/30 01:15:17;;;;;;;5.57;3.37;;;22.10;46.60;;;;;;5082815;28;20467;-92
2022/08/30 01:17:46;;;;;;;6.83;3.30;;;22.10;46.90;;;;;;5078380;28;20463;-90
2022/08/30 01:20:16;;;;;;;5.47;3.40;;;22.00;47.10;;;;;;5061993;28;20456;-88
2022/08/30 01:22:57;;;;;;;3.90;2.87;;;22.00;47.70;;;;;;5062751;28;21163;-88
2022/08/30 01:25:28;;;;;;;3.70;2.80;;;22.00;47.30;;;;;;5059223;28;20826;-88
2022/08/30 01:28:01;;;;;;;5.57;3.27;;;22.00;46.70;;;;;;5034414;28;20562;-90
2022/08/30 01:30:28;;;;;;;4.40;2.57;;;22.00;46.20;;;;;;5025512;28;20481;-88
2022/08/30 01:32:59;;;;;;;6.03;2.53;;;22.00;46.00;;;;;;5065124;28;20459;-88
2022/08/30 01:35:27;;;;;;;3.83;3.40;;;21.90;45.70;;;;;;5077170;28;20469;-90
2022/08/30 01:37:54;;;;;;;6.90;2.73;;;21.90;45.90;;;;;;5065199;28;20468;-89
2022/08/30 01:40:23;;;;;;;3.80;2.47;;;21.80;46.00;;;;;;5062870;28;20447;-89
2022/08/30 01:42:50;;;;;;;3.03;2.73;;;21.70;46.50;;;;;;5061754;28;20451;-91
2022/08/30 01:45:17;;;;;;;4.53;2.80;;;21.70;46.70;;;;;;5058370;28;20468;-88
2022/08/30 01:47:44;;;;;;;6.70;3.30;;;21.70;47.00;;;;;;5076919;28;20478;-91
2022/08/30 01:50:12;;;;;;;4.40;3.10;;;21.70;47.20;;;;;;5045605;28;20449;-91
2022/08/30 01:52:40;;;;;;;4.60;2.80;;;21.70;47.50;;;;;;5044688;28;20440;-89
2022/08/30 01:55:09;;;;;;;3.10;2.80;;;21.70;47.60;;;;;;5048444;28;20514;-90
2022/08/30 01:57:37;;;;;;;3.63;2.97;;;21.60;47.70;;;;;;5077326;28;20458;-88
2022/08/30 02:00:06;;;;;;;3.40;2.73;;;21.60;47.80;;;;;;5047362;28;20536;-89
2022/08/30 02:02:38;;;;;;;4.07;2.80;;;21.60;47.40;;;;;;5049296;28;20474;-89
2022/08/30 02:05:06;;;;;;;6.03;3.10;;;21.40;47.40;;;;;;5058853;28;20460;-89
2022/08/30 02:07:33;;;;;;;5.63;3.17;;;21.40;47.70;;;;;;5077355;28;20954;-90
2022/08/30 02:10:00;;;;;;;4.87;2.60;;;21.40;47.70;;;;;;5046561;28;20512;-88
2022/08/30 02:12:29;;;;;;;3.23;2.57;;;21.40;47.60;;;;;;5034447;28;20452;-91
2022/08/30 02:14:57;;;;;;;3.20;2.90;;;21.40;47.50;;;;;;5042185;28;20526;-89
2022/08/30 02:17:24;;;;;;;4.60;3.57;;;21.40;47.30;;;;;;5058408;28;20445;-87
2022/08/30 02:19:51;;;;;;;3.37;2.97;;;21.30;47.20;;;;;;5043850;28;20455;-87
2022/08/30 02:22:19;;;;;;;5.30;2.80;;;21.30;47.30;;;;;;5077830;28;20463;-88
2022/08/30 02:24:46;;;;;;;5.03;3.00;;;21.30;47.50;;;;;;5038502;28;20491;-87
2022/08/30 02:27:13;;;;;;;3.40;2.80;;;21.20;47.40;;;;;;5043455;28;20456;-87
2022/08/30 02:29:40;;;;;;;5.60;3.40;;;21.20;47.50;;;;;;5075495;28;20472;-88
2022/08/30 02:32:09;;;;;;;4.37;2.73;;;21.20;47.50;;;;;;5058664;28;20452;-89
2022/08/30 02:34:36;;;;;;;3.60;3.30;;;21.20;47.60;;;;;;5044610;28;20520;-88
2022/08/30 02:37:04;;;;;;;4.07;2.80;;;21.10;47.40;;;;;;5060884;28;20452;-89
2022/08/30 02:39:31;;;;;;;6.00;2.70;;;21.10;47.50;;;;;;5056768;28;20449;-90
2022/08/30 02:41:58;;;;;;;9.17;3.13;;;21.20;47.70;;;;;;5062571;28;20993;-88
2022/08/30 02:44:25;;;;;;;5.20;3.20;;;21.10;47.60;;;;;;5059955;28;20480;-89
2022/08/30 02:46:52;;;;;;;5.43;3.30;;;21.10;47.90;;;;;;5060998;28;20461;-87
2022/08/30 02:49:21;;;;;;;4.07;2.97;;;21.00;47.90;;;;;;5044641;28;20563;-90
2022/08/30 02:51:48;;;;;;;5.53;3.70;;;21.00;47.90;;;;;;5077891;28;20447;-88
2022/08/30 02:54:18;;;;;;;3.30;2.90;;;21.00;48.20;;;;;;5074055;28;20495;-88
2022/08/30 02:56:46;;;;;;;6.87;3.37;;;20.90;48.60;;;;;;5060498;28;20451;-88
2022/08/30 02:59:13;;;;;;;3.50;2.77;;;20.90;48.90;;;;;;5041254;28;20453;-88
2022/08/30 03:01:40;;;;;;;3.60;2.70;;;20.90;49.10;;;;;;5060443;28;20490;-89
2022/08/30 03:04:08;;;;;;;4.43;3.20;;;20.90;49.30;;;;;;5060245;28;20440;-90
2022/08/30 03:06:37;;;;;;;4.30;3.13;;;20.80;49.40;;;;;;5058484;28;20467;-89
2022/08/30 03:09:04;;;;;;;5.90;3.37;;;20.80;49.60;;;;;;5044425;28;20453;-88
2022/08/30 03:11:32;;;;;;;6.17;3.27;;;20.80;49.40;;;;;;5061479;28;20483;-88
2022/08/30 03:13:59;;;;;;;6.00;2.60;;;20.80;49.20;;;;;;5046802;28;21054;-88
2022/08/30 03:16:26;;;;;;;4.00;2.60;;;20.80;49.10;;;;;;5076191;28;20464;-89
2022/08/30 03:18:53;;;;;;;2.87;2.67;;;20.70;48.90;;;;;;5058680;28;20450;-88
2022/08/30 03:21:20;;;;;;;4.40;3.10;;;20.70;48.90;;;;;;5045167;28;20551;-88
2022/08/30 03:23:49;;;;;;;3.70;3.17;;;20.70;49.10;;;;;;5044668;28;20447;-89
2022/08/30 03:26:16;;;;;;;6.47;2.90;;;20.70;49.20;;;;;;5058553;28;20475;-88
2022/08/30 03:28:43;;;;;;;5.00;3.40;;;20.70;49.00;;;;;;5053131;28;20461;-87
2022/08/30 03:31:10;;;;;;;4.47;3.00;;;20.60;48.60;;;;;;5043154;28;20440;-88
2022/08/30 03:33:39;;;;;;;4.50;2.70;;;20.60;48.60;;;;;;5036051;28;20445;-91
2022/08/30 03:36:06;;;;;;;3.03;2.73;;;20.50;48.80;;;;;;5081309;28;20559;-90
2022/08/30 03:38:33;;;;;;;2.53;2.33;;;20.50;49.40;;;;;;5056157;28;20965;-91
2022/08/30 03:41:03;;;;;;;4.30;3.20;;;20.50;49.40;;;;;;5077853;28;20457;-89
2022/08/30 03:43:32;;;;;;;3.73;3.17;;;20.50;49.70;;;;;;5060030;28;20432;-88
2022/08/30 03:45:59;;;;;;;4.10;2.90;;;20.50;50.00;;;;;;5044989;28;20521;-89
2022/08/30 03:48:27;;;;;;;4.03;3.10;;;20.40;50.00;;;;;;5065283;28;20891;-93
2022/08/30 03:50:54;;;;;;;3.53;3.23;;;20.40;50.00;;;;;;5055321;28;21034;-89
2022/08/30 03:53:21;;;;;;;5.00;3.33;;;20.40;50.00;;;;;;5042291;28;20460;-89
2022/08/30 03:55:48;;;;;;;4.20;3.53;;;20.40;49.50;;;;;;5054282;28;20484;-88
2022/08/30 03:58:16;;;;;;;4.03;3.23;;;20.40;49.90;;;;;;5059234;28;20443;-89
2022/08/30 04:00:43;;;;;;;6.13;2.83;;;20.40;50.40;;;;;;5066746;28;20455;-88
2022/08/30 04:03:10;;;;;;;5.13;3.00;;;20.40;50.70;;;;;;5033942;28;20473;-91
2022/08/30 04:05:38;;;;;;;4.50;3.13;;;20.30;50.60;;;;;;5075016;28;20542;-90
2022/08/30 04:08:05;;;;;;;5.20;3.57;;;20.30;50.70;;;;;;5076561;28;20443;-89
2022/08/30 04:10:32;;;;;;;4.80;3.07;;;20.20;50.30;;;;;;5041645;28;20452;-91
2022/08/30 04:13:00;;;;;;;3.03;2.73;;;20.20;50.30;;;;;;5058444;28;20483;-88
2022/08/30 04:15:28;;;;;;;5.07;3.20;;;20.10;50.30;;;;;;5055497;28;20465;-88
2022/08/30 04:17:55;;;;;;;4.10;2.90;;;20.10;50.30;;;;;;5076632;28;20446;-90
2022/08/30 04:20:22;;;;;;;4.37;3.10;;;20.10;50.30;;;;;;5078358;28;20451;-89
2022/08/30 04:22:49;;;;;;;5.10;3.67;;;20.10;50.20;;;;;;5042114;28;21043;-91
2022/08/30 04:25:16;;;;;;;4.80;2.77;;;20.10;50.00;;;;;;5056719;28;20522;-91
2022/08/30 04:27:45;;;;;;;4.57;3.43;;;20.10;49.90;;;;;;5037148;28;20849;-90
2022/08/30 04:30:13;;;;;;;4.13;3.37;;;20.10;50.10;;;;;;5048112;28;20544;-87
2022/08/30 04:32:41;;;;;;;4.80;3.03;;;20.10;50.10;;;;;;5055386;28;20452;-90
2022/08/30 04:35:09;;;;;;;3.03;2.70;;;20.00;50.00;;;;;;5055014;28;21030;-87
2022/08/30 04:37:37;;;;;;;4.07;2.87;;;20.00;49.80;;;;;;5046614;28;20447;-90
2022/08/30 04:40:04;;;;;;;3.40;2.70;;;20.00;49.60;;;;;;5038749;28;20964;-90
2022/08/30 04:42:34;;;;;;;11.90;7.13;;;20.00;49.80;;;;;;5032570;28;20516;-89
2022/08/30 04:45:03;;;;;;;12.17;6.30;;;20.00;49.70;;;;;;5056662;28;20510;-88
2022/08/30 04:47:30;;;;;;;6.10;3.73;;;19.80;49.20;;;;;;5026708;28;20542;-89
2022/08/30 04:49:59;;;;;;;3.47;3.17;;;19.80;49.10;;;;;;5041406;28;20478;-87
2022/08/30 04:52:26;;;;;;;3.87;2.73;;;19.80;49.10;;;;;;5045279;28;20451;-90
2022/08/30 04:54:55;;;;;;;4.80;2.90;;;19.80;49.10;;;;;;5051078;28;20483;-88
2022/08/30 04:57:22;;;;;;;4.80;3.10;;;19.80;49.20;;;;;;5078609;28;20460;-88
2022/08/30 04:59:49;;;;;;;4.83;2.70;;;19.80;49.50;;;;;;5034428;28;21038;-88
2022/08/30 05:02:17;;;;;;;4.87;3.20;;;19.80;49.40;;;;;;5049557;28;20444;-87
2022/08/30 05:07:26;;;;;;;8.33;3.07;;;19.80;49.40;;;;;;5060529;28;21008;-89
2022/08/30 05:09:53;;;;;;;3.30;2.97;;;19.70;49.90;;;;;;5042202;28;20471;-89
2022/08/30 05:12:20;;;;;;;3.63;3.00;;;19.70;49.80;;;;;;5063028;28;20486;-89
2022/08/30 05:14:47;;;;;;;4.10;2.83;;;19.70;50.00;;;;;;5037949;28;20476;-91
2022/08/30 05:17:14;;;;;;;3.60;3.20;;;19.80;50.00;;;;;;5040525;28;20477;-92
2022/08/30 05:19:41;;;;;;;4.83;3.53;;;19.80;50.00;;;;;;5028809;28;20448;-92
2022/08/30 05:22:08;;;;;;;3.67;3.10;;;19.80;50.20;;;;;;5052544;28;20471;-88
2022/08/30 05:24:37;;;;;;;11.03;3.70;;;19.80;50.20;;;;;;5032880;28;20472;-90
2022/08/30 05:27:04;;;;;;;3.27;2.97;;;19.80;50.30;;;;;;5063121;28;20441;-88
2022/08/30 05:29:31;;;;;;;3.77;2.93;;;19.80;50.50;;;;;;5061076;28;20471;-87
2022/08/30 05:31:58;;;;;;;7.27;3.80;;;19.80;50.60;;;;;;5061406;28;20455;-89
2022/08/30 05:34:25;;;;;;;4.03;3.37;;;19.80;50.80;;;;;;5039397;28;20460;-90
2022/08/30 05:36:52;;;;;;;6.03;3.87;;;19.80;51.00;;;;;;5044513;28;20986;-88
2022/08/30 05:39:19;;;;;;;6.57;3.77;;;19.80;51.10;;;;;;5029100;28;20485;-89
2022/08/30 05:41:48;;;;;;;3.40;3.00;;;19.80;51.10;;;;;;5042280;28;20453;-90
2022/08/30 05:44:15;;;;;;;7.50;3.73;;;19.90;51.20;;;;;;5066391;28;20470;-89
2022/08/30 05:46:44;;;;;;;3.43;3.10;;;19.90;51.20;;;;;;5061408;28;20466;-90
2022/08/30 05:49:12;;;;;;;4.97;3.73;;;19.90;51.80;;;;;;5079986;28;20476;-92
2022/08/30 05:51:39;;;;;;;10.00;4.17;;;19.90;51.10;;;;;;5074740;28;20459;-89
2022/08/30 05:54:06;;;;;;;4.67;3.33;;;19.90;51.30;;;;;;5047295;28;21098;-88
2022/08/30 05:56:36;;;;;;;16.40;4.40;;;19.90;51.20;;;;;;5060585;28;20483;-88
2022/08/30 05:59:07;;;;;;;8.23;3.90;;;19.90;51.30;;;;;;5058660;28;21056;-91
2022/08/30 06:01:36;;;;;;;3.70;3.00;;;20.00;51.40;;;;;;5073966;28;20480;-88
2022/08/30 06:04:05;;;;;;;5.30;3.40;;;20.00;51.20;;;;;;5059767;28;20522;-89
2022/08/30 06:06:34;;;;;;;4.93;3.27;;;20.00;51.30;;;;;;5034547;28;20913;-87
2022/08/30 06:09:02;;;;;;;5.90;3.60;;;20.00;51.30;;;;;;5054993;28;20468;-87
2022/08/30 06:11:29;;;;;;;6.00;3.60;;;20.00;51.30;;;;;;5071790;28;21252;-86
2022/08/30 06:13:56;;;;;;;5.23;3.70;;;20.00;51.40;;;;;;5052463;28;20453;-87
2022/08/30 06:16:26;;;;;;;6.73;3.87;;;20.00;51.40;;;;;;5070755;28;20580;-87
2022/08/30 06:18:55;;;;;;;7.93;3.70;;;20.10;51.50;;;;;;5037650;28;20449;-88
2022/08/30 06:21:24;;;;;;;7.03;3.70;;;20.10;51.90;;;;;;5058430;28;20464;-88
2022/08/30 06:23:52;;;;;;;4.47;3.50;;;20.10;51.70;;;;;;5052779;28;20460;-88
2022/08/30 06:26:19;;;;;;;5.83;4.40;;;20.20;51.30;;;;;;5048807;28;20557;-87
2022/08/30 06:28:47;;;;;;;6.20;3.70;;;20.20;51.60;;;;;;5048637;28;20758;-87
2022/08/30 06:31:16;;;;;;;3.57;3.27;;;20.20;51.50;;;;;;5060795;28;20456;-87
2022/08/30 06:33:45;;;;;;;5.60;3.80;;;20.30;51.40;;;;;;5035501;28;20808;-88
2022/08/30 06:36:14;;;;;;;5.93;3.70;;;20.30;51.90;;;;;;5035810;28;20464;-89
2022/08/30 06:38:42;;;;;;;5.33;3.63;;;20.30;51.90;;;;;;5064909;28;20437;-88
2022/08/30 06:41:11;;;;;;;5.00;3.40;;;20.40;52.20;;;;;;5048965;28;20454;-87
2022/08/30 06:43:38;;;;;;;3.50;3.13;;;20.50;52.20;;;;;;5043579;28;20463;-87
2022/08/30 06:46:06;;;;;;;5.30;3.50;;;20.50;52.00;;;;;;5035113;28;21140;-87
2022/08/30 06:48:33;;;;;;;7.03;3.37;;;20.60;51.60;;;;;;5049969;28;20448;-88
2022/08/30 06:51:02;;;;;;;4.90;3.50;;;20.70;51.30;;;;;;5052988;28;20567;-89
2022/08/30 06:53:30;;;;;;;10.27;4.07;;;20.80;51.50;;;;;;5071210;28;20451;-87
2022/08/30 06:55:59;;;;;;;5.83;3.33;;;20.80;51.60;;;;;;5052752;28;20484;-87
2022/08/30 06:58:26;;;;;;;5.60;3.03;;;20.80;50.40;;;;;;5066285;28;20948;-89
2022/08/30 07:00:53;;;;;;;9.23;3.63;;;20.90;50.10;;;;;;5038088;28;20444;-86
2022/08/30 07:03:20;;;;;;;4.27;3.40;;;20.80;50.30;;;;;;5052111;28;21142;-88
2022/08/30 07:05:48;;;;;;;4.70;2.63;;;20.90;50.30;;;;;;5070367;28;20468;-88
2022/08/30 07:08:17;;;;;;;7.40;2.87;;;21.00;50.30;;;;;;5068737;28;20448;-88
2022/08/30 07:10:44;;;;;;;5.70;3.57;;;21.00;49.60;;;;;;5070427;28;20499;-87
2022/08/30 07:13:12;;;;;;;5.70;3.33;;;21.00;49.70;;;;;;5053820;28;20448;-89
2022/08/30 07:15:42;;;;;;;6.57;2.90;;;21.00;49.40;;;;;;5069731;28;20473;-87
2022/08/30 07:20:54;;;;;;;4.50;2.50;;;21.10;48.30;;;;;;5053141;28;20491;-88
2022/08/30 07:23:23;;;;;;;4.03;2.90;;;21.10;48.40;;;;;;5044772;28;20452;-88
2022/08/30 07:25:50;;;;;;;19.17;2.90;;;21.10;48.10;;;;;;5050989;28;20464;-89
2022/08/30 07:28:17;;;;;;;4.83;3.03;;;21.20;48.90;;;;;;5041772;28;20459;-87
2022/08/30 07:30:44;;;;;;;7.40;2.77;;;21.30;49.50;;;;;;5050668;28;20476;-87
2022/08/30 07:33:11;;;;;;;3.23;2.60;;;21.60;49.30;;;;;;5037995;28;20459;-87
2022/08/30 07:35:38;;;;;;;13.40;3.70;;;21.80;48.60;;;;;;5053681;28;20644;-87
2022/08/30 07:38:05;;;;;;;9.47;3.37;;;21.90;47.80;;;;;;5068865;28;20535;-88
2022/08/30 07:40:34;;;;;;;5.90;2.70;;;22.00;47.40;;;;;;5068524;28;20456;-87
2022/08/30 07:43:01;;;;;;;12.53;2.80;;;22.00;47.10;;;;;;5043373;28;20819;-88
2022/08/30 07:45:28;;;;;;;4.67;3.10;;;22.20;47.30;;;;;;5058320;28;20476;-88
2022/08/30 07:47:56;;;;;;;5.53;3.13;;;22.30;46.40;;;;;;5071123;28;20951;-88
2022/08/30 07:50:23;;;;;;;7.57;3.00;;;22.30;46.50;;;;;;5068654;28;20596;-88
2022/08/30 07:52:50;;;;;;;4.83;2.60;;;22.50;46.50;;;;;;5051549;28;20447;-89
2022/08/30 07:55:17;;;;;;;14.00;2.70;;;22.60;45.80;;;;;;5066627;28;20578;-85
2022/08/30 07:57:46;;;;;;;13.97;3.37;;;22.70;44.50;;;;;;5051888;28;20452;-88
2022/08/30 08:00:13;;;;;;;3.07;2.77;;;22.80;44.40;;;;;;5039647;28;20448;-87
2022/08/30 08:02:41;;;;;;;6.40;2.67;;;22.90;45.60;;;;;;5053362;28;20536;-88
2022/08/30 08:05:09;;;;;;;6.40;2.70;;;23.10;45.20;;;;;;5044369;28;20461;-89
2022/08/30 08:07:36;;;;;;;8.20;3.13;;;23.20;44.90;;;;;;5055512;28;20444;-88
2022/08/30 08:10:04;;;;;;;12.17;2.30;;;23.40;44.20;;;;;;5056607;28;20480;-87
2022/08/30 08:12:32;;;;;;;4.63;2.63;;;23.40;43.80;;;;;;5050497;28;20449;-91
2022/08/30 08:15:00;;;;;;;6.13;2.60;;;23.50;43.80;;;;;;5053434;28;20843;-88
2022/08/30 08:17:27;;;;;;;4.63;2.80;;;23.70;43.00;;;;;;5054231;28;20467;-89
2022/08/30 08:19:54;;;;;;;5.60;2.60;;;23.80;43.20;;;;;;5073111;28;20444;-88
2022/08/30 08:22:21;;;;;;;7.77;2.50;;;23.90;42.80;;;;;;5053766;28;20459;-88
2022/08/30 08:24:48;;;;;;;8.37;2.97;;;24.10;42.40;;;;;;5053906;28;21011;-88
2022/08/30 08:27:16;;;;;;;6.63;2.37;;;24.20;42.40;;;;;;5060393;28;20455;-88
2022/08/30 08:29:43;;;;;;;7.20;2.50;;;24.40;41.50;;;;;;5051563;28;20860;-89
2022/08/30 08:32:11;;;;;;;3.90;2.50;;;24.50;42.30;;;;;;5051691;28;20487;-89
2022/08/30 08:34:38;;;;;;;6.63;2.93;;;24.50;42.00;;;;;;5052168;28;20471;-89
2022/08/30 08:37:05;;;;;;;3.87;2.43;;;24.50;42.00;;;;;;5052548;28;20972;-88
2022/08/30 08:39:32;;;;;;;3.97;2.63;;;24.60;42.00;;;;;;5069882;28;22935;-89
2022/08/30 08:42:07;;;;;;;4.00;2.43;;;24.70;42.10;;;;;;5037382;28;20443;-87
2022/08/30 08:44:49;;;;;;;9.20;2.67;;;24.80;41.90;;;;;;5018256;28;20470;-88
2022/08/30 08:47:26;;;;;;;7.83;2.60;;;24.90;41.60;;;;;;5061557;28;20452;-88
2022/08/30 08:49:58;;;;;;;7.27;3.10;;;25.00;41.20;;;;;;5052834;28;20467;-87
2022/08/30 08:55:17;;;;;;;7.70;2.93;;;25.20;40.90;;;;;;5071141;28;20595;-87
2022/08/30 08:57:45;;;;;;;6.00;3.07;;;25.30;40.80;;;;;;5073582;28;20443;-89
2022/08/30 09:00:13;;;;;;;4.93;2.50;;;25.30;40.40;;;;;;5066665;28;20449;-87
2022/08/30 09:02:44;;;;;;;5.00;2.40;;;25.40;40.80;;;;;;5039777;28;20959;-89
2022/08/30 09:05:14;;;;;;;5.43;2.93;;;25.50;40.30;;;;;;5069157;28;20473;-87
2022/08/30 09:07:43;;;;;;;5.43;3.20;;;25.60;40.10;;;;;;5034677;28;20478;-89
2022/08/30 09:10:10;;;;;;;4.53;2.27;;;25.60;39.80;;;;;;5069944;28;20536;-87
2022/08/30 09:12:37;;;;;;;6.93;3.10;;;25.70;40.20;;;;;;5033989;28;20448;-87
2022/08/30 09:15:11;;;;;;;7.53;3.33;;;25.90;39.60;;;;;;5048039;28;20460;-87
2022/08/30 09:17:52;;;;;;;3.90;2.67;;;26.00;39.30;;;;;;5052809;28;20449;-89
2022/08/30 09:20:29;;;;;;;10.10;3.20;;;26.20;39.40;;;;;;5053092;28;20880;-84
2022/08/30 09:22:56;;;;;;;3.90;2.43;;;26.30;39.20;;;;;;5050567;28;20824;-86
2022/08/30 09:25:26;;;;;;;5.33;2.93;;;26.40;38.80;;;;;;5052541;28;21031;-86
2022/08/30 09:27:55;;;;;;;3.73;2.47;;;26.60;38.80;;;;;;5026063;28;20460;-88
2022/08/30 09:30:24;;;;;;;6.27;3.30;;;26.90;38.60;;;;;;5049073;28;20610;-90
2022/08/30 09:32:55;;;;;;;7.53;2.63;;;27.20;38.40;;;;;;5051554;28;20449;-88
2022/08/30 09:35:24;;;;;;;4.90;3.10;;;27.30;37.00;;;;;;5043981;28;20483;-90
2022/08/30 09:37:55;;;;;;;6.67;2.70;;;27.20;37.30;;;;;;5037495;28;20448;-89
2022/08/30 09:40:28;;;;;;;6.37;2.97;;;27.40;37.90;;;;;;5039134;28;20932;-88
2022/08/30 09:43:05;;;;;;;6.23;3.23;;;27.60;36.70;;;;;;5074345;28;20458;-88
2022/08/30 09:45:35;;;;;;;4.50;2.47;;;27.60;35.90;;;;;;5056753;28;20471;-88
2022/08/30 09:48:29;;;;;;;3.73;2.53;;;27.60;36.40;;;;;;5059931;28;20437;-89
2022/08/30 09:51:12;;;;;;;3.73;3.07;;;27.90;36.70;;;;;;5060512;28;20964;-89
2022/08/30 09:53:48;;;;;;;4.60;3.40;;;28.20;35.90;;;;;;5058083;28;20441;-89
2022/08/30 09:56:24;;;;;;;4.13;3.20;;;28.50;35.50;;;;;;5053426;28;20538;-89
2022/08/30 09:59:02;;;;;;;3.50;2.87;;;28.70;34.50;;;;;;5029302;28;20446;-87
2022/08/30 10:01:32;;;;;;;5.17;2.90;;;29.00;33.90;;;;;;5071166;28;20439;-88
2022/08/30 10:04:12;;;;;;;5.00;2.93;;;29.20;33.60;;;;;;5073010;28;20449;-89
2022/08/30 10:06:44;;;;;;;5.70;3.07;;;29.40;33.90;;;;;;5070152;28;20961;-88
2022/08/30 10:09:19;;;;;;;10.73;3.73;;;29.50;33.00;;;;;;5062749;28;20475;-88
2022/08/30 10:11:54;;;;;;;5.13;2.93;;;29.60;32.20;;;;;;5028443;28;20467;-89
2022/08/30 10:14:49;;;;;;;3.37;3.07;;;29.70;32.30;;;;;;5060006;28;20483;-88
2022/08/30 10:17:27;;;;;;;4.67;2.60;;;29.90;31.30;;;;;;5042270;28;20856;-89
2022/08/30 10:20:06;;;;;;;5.20;2.30;;;30.00;31.90;;;;;;5054896;28;20449;-89
2022/08/30 10:22:37;;;;;;;6.70;3.37;;;30.30;31.30;;;;;;5048566;28;20551;-89
2022/08/30 10:25:09;;;;;;;3.20;2.90;;;30.40;30.00;;;;;;5055829;28;20473;-89
2022/08/30 10:27:43;;;;;;;3.50;2.73;;;30.50;29.80;;;;;;5037682;28;20456;-89
2022/08/30 10:30:13;;;;;;;3.90;2.73;;;30.60;29.90;;;;;;5053404;28;21207;-89
2022/08/30 10:32:46;;;;;;;5.13;2.60;;;30.60;28.70;;;;;;5062683;28;20909;-87
2022/08/30 10:35:18;;;;;;;4.93;2.60;;;30.60;29.90;;;;;;5072134;28;20495;-85
2022/08/30 10:37:49;;;;;;;5.27;2.77;;;30.50;28.80;;;;;;5069333;28;20454;-91
2022/08/30 10:43:14;;;;;;;3.83;2.67;;;30.50;29.20;;;;;;5055169;28;20448;-90
2022/08/30 10:45:46;;;;;;;3.13;2.50;;;30.90;29.50;;;;;;5072199;28;20850;-88
2022/08/30 10:48:19;;;;;;;3.20;2.33;;;30.90;27.30;;;;;;5042305;28;20444;-89
2022/08/30 10:50:52;;;;;;;5.80;3.07;;;31.10;27.90;;;;;;5036949;28;20479;-88
2022/08/30 10:53:24;;;;;;;4.37;2.80;;;31.00;28.50;;;;;;5042037;28;20519;-88
2022/08/30 10:55:55;;;;;;;5.50;2.57;;;31.20;29.00;;;;;;5049114;28;20480;-87
2022/08/30 10:58:23;;;;;;;3.53;2.70;;;31.40;28.30;;;;;;5044982;28;20463;-90
2022/08/30 11:01:07;;;;;;;4.40;2.70;;;31.20;28.10;;;;;;5034116;28;20679;-89
2022/08/30 11:04:16;;;;;;;5.77;3.00;;;31.20;28.20;;;;;;5038962;28;20444;-91
2022/08/30 11:06:55;;;;;;;3.57;2.90;;;31.10;27.60;;;;;;5068491;28;20444;-88
2022/08/30 11:09:37;;;;;;;3.93;2.50;;;31.10;27.40;;;;;;5065266;28;20452;-90
2022/08/30 11:12:28;;;;;;;12.30;3.10;;;31.00;28.20;;;;;;5062580;28;20456;-89
2022/08/30 11:14:55;;;;;;;6.50;2.67;;;31.20;27.00;;;;;;5061567;28;20480;-88
2022/08/30 11:17:27;;;;;;;2.90;2.60;;;31.30;26.90;;;;;;5042774;28;21051;-89
2022/08/30 11:19:56;;;;;;;3.30;3.00;;;31.40;26.40;;;;;;5072153;28;20450;-88
2022/08/30 11:22:27;;;;;;;5.13;2.63;;;31.60;26.60;;;;;;5052121;28;20486;-88
2022/08/30 11:25:08;;;;;;;5.10;2.70;;;31.80;25.70;;;;;;5056511;28;20544;-89
2022/08/30 11:27:44;;;;;;;4.00;2.50;;;32.10;26.90;;;;;;5029554;28;21254;-89
2022/08/30 11:30:49;;;;;;;3.07;2.87;;;32.40;25.80;;;;;;5033154;28;20965;-89
2022/08/30 11:33:42;;;;;;;3.60;2.27;;;32.60;25.50;;;;;;5050231;28;20459;-89
2022/08/30 11:36:10;;;;;;;4.77;2.87;;;32.80;25.70;;;;;;5049134;28;20456;-91
2022/08/30 11:39:05;;;;;;;4.30;2.60;;;33.00;24.80;;;;;;5050015;28;21018;-89
2022/08/30 11:41:36;;;;;;;3.20;2.83;;;33.00;24.60;;;;;;5050870;28;21943;-90
2022/08/30 11:44:26;;;;;;;2.80;2.60;;;32.90;25.10;;;;;;5071533;28;20712;-89
2022/08/30 11:46:54;;;;;;;2.93;2.57;;;32.70;25.40;;;;;;5068670;28;20560;-89
2022/08/30 11:49:46;;;;;;;4.47;3.07;;;32.80;25.50;;;;;;5025908;28;20461;-89
2022/08/30 11:52:48;;;;;;;6.30;3.20;;;33.00;25.00;;;;;;5053741;28;20460;-85
2022/08/30 11:55:39;;;;;;;4.20;3.37;;;33.20;25.20;;;;;;4954091;28;20917;-87
2022/08/30 11:58:18;;;;;;;3.30;2.30;;;33.40;24.50;;;;;;5068484;28;20444;-87
2022/08/30 12:00:47;;;;;;;4.03;2.83;;;33.60;24.80;;;;;;5036984;28;20483;-88
2022/08/30 12:03:32;;;;;;;3.67;3.00;;;33.80;24.70;;;;;;5072220;28;20453;-87
2022/08/30 12:06:02;;;;;;;2.93;2.73;;;33.80;24.10;;;;;;5070063;28;20479;-87
2022/08/30 12:08:55;;;;;;;4.13;2.63;;;33.30;24.40;;;;;;5074637;28;20451;-86
2022/08/30 12:11:59;;;;;;;3.70;2.30;;;33.30;24.40;;;;;;5071785;28;20456;-88
2022/08/30 12:14:53;;;;;;;5.30;2.60;;;33.40;24.30;;;;;;5067112;28;20656;-89
2022/08/30 12:20:24;;;;;;;2.80;2.60;;;33.20;24.30;;;;;;5071600;28;20447;-88
2022/08/30 12:22:53;;;;;;;3.40;3.10;;;33.50;24.30;;;;;;5054894;28;20978;-89
2022/08/30 12:25:26;;;;;;;3.93;2.60;;;33.50;23.80;;;;;;5076033;28;20560;-86
2022/08/30 12:28:14;;;;;;;2.80;2.60;;;33.60;24.60;;;;;;5054348;28;20547;-90
2022/08/30 12:30:43;;;;;;;12.43;3.60;;;33.90;24.40;;;;;;5062879;28;20449;-87
2022/08/30 12:33:12;;;;;;;2.93;2.60;;;33.80;23.90;;;;;;5043047;28;21011;-86
2022/08/30 12:35:42;;;;;;;2.50;2.30;;;33.90;23.20;;;;;;5057028;28;20505;-88
2022/08/30 12:38:15;;;;;;;4.27;2.83;;;33.70;23.10;;;;;;5073735;28;20521;-86
2022/08/30 12:40:50;;;;;;;3.13;2.77;;;33.60;24.00;;;;;;5054864;28;20448;-87
2022/08/30 12:43:26;;;;;;;5.07;3.13;;;33.10;23.90;;;;;;5057044;28;21118;-87
2022/08/30 12:45:57;;;;;;;4.77;2.27;;;33.50;24.60;;;;;;5073363;28;20480;-87
2022/08/30 12:48:24;;;;;;;3.70;2.90;;;34.10;24.20;;;;;;5055611;28;20838;-86
2022/08/30 12:50:54;;;;;;;4.07;2.87;;;34.40;23.10;;;;;;5076003;28;20455;-86
2022/08/30 12:53:26;;;;;;;3.27;2.60;;;34.30;22.90;;;;;;5075525;28;20459;-86
2022/08/30 12:55:58;;;;;;;3.00;2.70;;;34.10;22.30;;;;;;5070103;28;20491;-86
2022/08/30 12:58:42;;;;;;;4.97;3.20;;;33.80;22.30;;;;;;5071630;28;20449;-87
2022/08/30 13:01:18;;;;;;;4.10;2.73;;;34.00;22.50;;;;;;5074747;28;20451;-86
2022/08/30 13:03:56;;;;;;;4.60;2.43;;;33.90;23.20;;;;;;5071810;28;20447;-87
2022/08/30 13:06:38;;;;;;;3.03;2.60;;;34.30;23.70;;;;;;5046262;28;20467;-88
2022/08/30 13:09:05;;;;;;;4.60;3.00;;;34.30;22.80;;;;;;5038416;28;21395;-86
2022/08/30 13:11:32;;;;;;;5.20;2.70;;;34.60;22.80;;;;;;5074092;28;20541;-87
2022/08/30 13:14:34;;;;;;;2.60;2.37;;;34.50;22.10;;;;;;5074678;28;20522;-88
2022/08/30 13:17:12;;;;;;;3.87;3.47;;;34.50;23.60;;;;;;5066394;28;20962;-88